Time;durP1;ratioP1;P1;durP2;ratioP2;P2;SDS_P1;SDS_P2;PMS_P1;PMS_P2;Temp;Humidity;BMP_temperature;BMP_pressure;BME280_temperature;BME280_humidity;BME280_pressure;Samples;Min_cycle;Max_cycle;Signal;HPM_P1;HPM_P2
2023/10/06 00:01:21;;;;;;;;;;;20.20;72.40;;;;;;4946757;28;95164;-37
2023/10/06 00:03:57;;;;;;;;;;;20.20;72.20;;;;;;4945772;28;94309;-37
2023/10/06 00:06:22;;;;;;;;;;;20.20;72.20;;;;;;4950054;28;96070;-38
2023/10/06 00:08:51;;;;;;;;;;;20.20;72.40;;;;;;4952063;28;98329;-37
2023/10/06 00:11:28;;;;;;;;;;;20.20;72.30;;;;;;4944566;28;94803;-37
2023/10/06 00:14:00;;;;;;;;;;;20.20;72.10;;;;;;4950091;28;95007;-36
2023/10/06 00:16:33;;;;;;;;;;;20.20;72.10;;;;;;4943705;28;93931;-36
2023/10/06 00:19:14;;;;;;;;;;;20.20;72.30;;;;;;4945660;28;94264;-37
2023/10/06 00:21:46;;;;;;;;;;;20.20;72.30;;;;;;4944914;28;96895;-36
2023/10/06 00:24:12;;;;;;;;;;;20.20;72.10;;;;;;4945557;28;95508;-36
2023/10/06 00:26:38;;;;;;;;;;;20.20;72.20;;;;;;4948160;28;96231;-37
2023/10/06 00:29:10;;;;;;;;;;;20.20;72.10;;;;;;4950701;28;99906;-36
2023/10/06 00:31:36;;;;;;;;;;;20.20;72.30;;;;;;4946449;28;97337;-37
2023/10/06 00:34:01;;;;;;;;;;;20.10;72.20;;;;;;4937333;28;95634;-36
2023/10/06 00:36:29;;;;;;;;;;;20.20;72.20;;;;;;4944894;28;96054;-36
2023/10/06 00:38:55;;;;;;;;;;;20.20;72.10;;;;;;4942950;28;94705;-37
2023/10/06 00:41:21;;;;;;;;;;;20.20;72.00;;;;;;4945899;28;94019;-36
2023/10/06 00:43:47;;;;;;;;;;;20.20;72.00;;;;;;4950622;28;94700;-36
2023/10/06 00:46:14;;;;;;;;;;;20.20;72.00;;;;;;4953046;28;94719;-37
2023/10/06 00:48:40;;;;;;;;;;;20.20;72.20;;;;;;4942115;28;96572;-37
2023/10/06 00:51:09;;;;;;;;;;;20.20;72.30;;;;;;4949146;28;97302;-37
2023/10/06 00:53:35;;;;;;;;;;;20.10;72.10;;;;;;4943411;28;98364;-36
2023/10/06 00:56:08;;;;;;;;;;;20.20;72.10;;;;;;4938426;28;95250;-37
2023/10/06 00:58:34;;;;;;;;;;;20.10;72.10;;;;;;4937221;28;95792;-37
2023/10/06 01:01:07;;;;;;;;;;;20.10;72.00;;;;;;4952173;28;95837;-37
2023/10/06 01:03:38;;;;;;;;;;;20.10;72.00;;;;;;4924503;28;96072;-37
2023/10/06 01:06:08;;;;;;;;;;;20.20;72.00;;;;;;4953940;28;94041;-37
2023/10/06 01:08:34;;;;;;;;;;;20.10;72.00;;;;;;4944171;28;96075;-37
2023/10/06 01:11:11;;;;;;;;;;;20.10;72.00;;;;;;4936815;28;95297;-38
2023/10/06 01:13:37;;;;;;;;;;;20.10;72.00;;;;;;4945090;28;96388;-37
2023/10/06 01:16:03;;;;;;;;;;;20.10;72.00;;;;;;4948055;28;95302;-37
2023/10/06 01:18:35;;;;;;;;;;;20.10;72.10;;;;;;4947869;28;95461;-37
2023/10/06 01:21:13;;;;;;;;;;;20.10;71.90;;;;;;4947994;28;98522;-37
2023/10/06 01:23:39;;;;;;;;;;;20.10;71.90;;;;;;4942497;28;95057;-37
2023/10/06 01:26:05;;;;;;;;;;;20.10;71.90;;;;;;4948293;28;94662;-38
2023/10/06 01:28:34;;;;;;;;;;;20.10;72.50;;;;;;4945643;28;95086;-37
2023/10/06 01:31:04;;;;;;;;;;;20.00;72.00;;;;;;4953578;28;96064;-37
2023/10/06 01:33:30;;;;;;;;;;;20.10;72.00;;;;;;4943725;28;96595;-37
2023/10/06 01:35:55;;;;;;;;;;;20.10;71.90;;;;;;4949736;28;94874;-37
2023/10/06 01:38:22;;;;;;;;;;;20.10;72.00;;;;;;4947128;28;96359;-37
2023/10/06 01:40:50;;;;;;;;;;;20.10;71.90;;;;;;4946266;28;95494;-38
2023/10/06 01:43:22;;;;;;;;;;;20.10;72.00;;;;;;4946786;28;94886;-37
2023/10/06 01:45:51;;;;;;;;;;;20.10;71.90;;;;;;4947625;28;98364;-37
2023/10/06 01:50:48;;;;;;;;;;;20.10;71.80;;;;;;4949496;28;95307;-37
2023/10/06 01:53:18;;;;;;;;;;;20.00;71.80;;;;;;4952845;28;96793;-37
2023/10/06 01:55:49;;;;;;;;;;;20.10;71.90;;;;;;4951433;28;94672;-37
2023/10/06 01:58:15;;;;;;;;;;;20.00;71.80;;;;;;4928008;28;97732;-37
2023/10/06 02:00:41;;;;;;;;;;;20.10;71.80;;;;;;4937945;28;94977;-38
2023/10/06 02:03:10;;;;;;;;;;;20.10;71.80;;;;;;4944569;28;96718;-37
2023/10/06 02:05:39;;;;;;;;;;;20.10;71.80;;;;;;4953241;28;95857;-37
2023/10/06 02:08:11;;;;;;;;;;;20.00;71.80;;;;;;4943606;28;94564;-36
2023/10/06 02:10:37;;;;;;;;;;;20.00;71.80;;;;;;4944807;28;95924;-37
2023/10/06 02:13:04;;;;;;;;;;;20.00;71.90;;;;;;4950078;28;95249;-37
2023/10/06 02:15:31;;;;;;;;;;;20.00;71.90;;;;;;4942131;28;95481;-37
2023/10/06 02:17:57;;;;;;;;;;;20.00;71.80;;;;;;4948314;28;99862;-37
2023/10/06 02:22:51;;;;;;;;;;;20.00;71.80;;;;;;4946098;28;94712;-37
2023/10/06 02:25:17;;;;;;;;;;;20.00;71.90;;;;;;4950200;28;95406;-37
2023/10/06 02:27:47;;;;;;;;;;;19.90;71.80;;;;;;4942471;28;96473;-36
2023/10/06 02:30:24;;;;;;;;;;;20.00;71.90;;;;;;4946305;28;95293;-37
2023/10/06 02:32:51;;;;;;;;;;;20.00;71.80;;;;;;4943482;28;94701;-37
2023/10/06 02:35:17;;;;;;;;;;;20.00;71.80;;;;;;4947783;28;94798;-37
2023/10/06 02:37:45;;;;;;;;;;;20.00;71.80;;;;;;4936713;28;96869;-37
2023/10/06 02:40:11;;;;;;;;;;;20.00;71.70;;;;;;4948751;28;94782;-37
2023/10/06 02:42:52;;;;;;;;;;;20.00;71.60;;;;;;4943928;28;94922;-37
2023/10/06 02:45:20;;;;;;;;;;;20.00;71.60;;;;;;4954924;28;93474;-36
2023/10/06 02:47:51;;;;;;;;;;;20.00;71.60;;;;;;4945861;28;97054;-37
2023/10/06 02:50:20;;;;;;;;;;;20.00;72.20;;;;;;4946300;28;95139;-37
2023/10/06 02:52:46;;;;;;;;;;;19.90;71.80;;;;;;4938106;28;95809;-37
2023/10/06 02:55:13;;;;;;;;;;;19.90;71.80;;;;;;4943654;28;95484;-37
2023/10/06 02:57:42;;;;;;;;;;;19.90;71.80;;;;;;4944617;28;100502;-37
2023/10/06 03:02:55;;;;;;;;;;;20.00;71.80;;;;;;4936765;28;94018;-37
2023/10/06 03:05:31;;;;;;;;;;;19.90;71.70;;;;;;4941595;28;94777;-37
2023/10/06 03:07:58;;;;;;;;;;;19.90;71.70;;;;;;4949812;28;94671;-37
2023/10/06 03:10:27;;;;;;;;;;;19.90;71.80;;;;;;4942095;28;94081;-36
2023/10/06 03:12:53;;;;;;;;;;;19.90;71.90;;;;;;4946490;28;94820;-36
2023/10/06 03:15:45;;;;;;;;;;;19.80;71.80;;;;;;4951135;28;94817;-37
2023/10/06 03:18:12;;;;;;;;;;;19.80;71.90;;;;;;4943782;28;100795;-37
2023/10/06 03:20:41;;;;;;;;;;;19.90;71.80;;;;;;4946316;28;94775;-38
2023/10/06 03:25:56;;;;;;;;;;;19.90;71.80;;;;;;4948818;28;94924;-37
2023/10/06 03:28:31;;;;;;;;;;;19.90;71.80;;;;;;4942423;28;95478;-37
2023/10/06 03:30:58;;;;;;;;;;;19.80;71.70;;;;;;4947151;28;94686;-37
2023/10/06 03:33:24;;;;;;;;;;;19.90;71.90;;;;;;4932164;28;96546;-37
2023/10/06 03:35:49;;;;;;;;;;;19.90;71.80;;;;;;4963030;28;93961;-37
2023/10/06 03:43:12;;;;;;;;;;;19.80;71.70;;;;;;4935522;28;95888;-37
2023/10/06 03:45:42;;;;;;;;;;;19.90;71.80;;;;;;4935620;28;95028;-36
2023/10/06 03:48:12;;;;;;;;;;;19.80;71.70;;;;;;4952362;28;95329;-38
2023/10/06 03:50:38;;;;;;;;;;;19.80;71.70;;;;;;4943965;28;95178;-37
2023/10/06 03:53:07;;;;;;;;;;;19.80;71.80;;;;;;4956392;28;94836;-38
2023/10/06 03:55:42;;;;;;;;;;;19.80;71.70;;;;;;4931898;28;98744;-38
2023/10/06 03:58:09;;;;;;;;;;;19.80;71.70;;;;;;4938474;28;96372;-37
2023/10/06 04:00:38;;;;;;;;;;;19.80;71.80;;;;;;4947988;28;97307;-37
2023/10/06 04:03:13;;;;;;;;;;;19.80;71.80;;;;;;4952468;28;98510;-37
2023/10/06 04:05:39;;;;;;;;;;;19.80;71.80;;;;;;4952595;28;94743;-37
2023/10/06 04:08:08;;;;;;;;;;;19.80;71.80;;;;;;4952811;28;98393;-37
2023/10/06 04:10:34;;;;;;;;;;;19.80;71.80;;;;;;4945059;28;96208;-37
2023/10/06 04:12:59;;;;;;;;;;;19.80;71.80;;;;;;4944222;28;94947;-37
2023/10/06 04:15:26;;;;;;;;;;;19.80;71.80;;;;;;4948326;28;95972;-37
2023/10/06 04:17:52;;;;;;;;;;;19.80;71.80;;;;;;4946723;28;95387;-37
2023/10/06 04:20:17;;;;;;;;;;;19.80;71.90;;;;;;4942774;28;95582;-37
2023/10/06 04:22:43;;;;;;;;;;;19.70;71.80;;;;;;4946936;28;97273;-37
2023/10/06 04:25:10;;;;;;;;;;;19.70;71.80;;;;;;4951225;28;94962;-37
2023/10/06 04:27:36;;;;;;;;;;;19.70;71.70;;;;;;4945234;28;96624;-37
2023/10/06 04:30:04;;;;;;;;;;;19.70;71.70;;;;;;4947653;28;95349;-37
2023/10/06 04:32:30;;;;;;;;;;;19.70;71.60;;;;;;4943323;28;95701;-38
2023/10/06 04:34:56;;;;;;;;;;;19.70;71.70;;;;;;4943944;28;94874;-37
2023/10/06 04:37:22;;;;;;;;;;;19.70;71.80;;;;;;4942733;28;95189;-37
2023/10/06 04:39:47;;;;;;;;;;;19.70;71.80;;;;;;4936317;28;97547;-37
2023/10/06 04:42:13;;;;;;;;;;;19.70;71.80;;;;;;4947508;28;94902;-37
2023/10/06 04:44:38;;;;;;;;;;;19.70;71.80;;;;;;4943957;28;94680;-37
2023/10/06 04:47:08;;;;;;;;;;;19.70;71.80;;;;;;4938815;28;95041;-37
2023/10/06 04:49:34;;;;;;;;;;;19.70;71.70;;;;;;4953317;28;94989;-37
2023/10/06 04:52:00;;;;;;;;;;;19.70;71.90;;;;;;4950629;28;95929;-37
2023/10/06 04:54:26;;;;;;;;;;;19.70;71.80;;;;;;4931808;28;94738;-37
2023/10/06 04:56:52;;;;;;;;;;;19.70;71.80;;;;;;4936420;28;100250;-37
2023/10/06 04:59:19;;;;;;;;;;;19.70;71.90;;;;;;4940892;28;95021;-37
2023/10/06 05:01:45;;;;;;;;;;;19.70;71.90;;;;;;4948196;28;95045;-37
2023/10/06 05:04:11;;;;;;;;;;;19.70;71.90;;;;;;4942881;28;97316;-37
2023/10/06 05:06:36;;;;;;;;;;;19.70;71.90;;;;;;4950450;28;94985;-37
2023/10/06 05:09:02;;;;;;;;;;;19.60;72.00;;;;;;4923386;28;99299;-37
2023/10/06 05:11:32;;;;;;;;;;;19.70;72.00;;;;;;4946493;28;96506;-37
2023/10/06 05:13:58;;;;;;;;;;;19.60;72.10;;;;;;4942027;28;95948;-38
2023/10/06 05:16:27;;;;;;;;;;;19.60;72.00;;;;;;4949903;28;98254;-38
2023/10/06 05:18:53;;;;;;;;;;;19.60;72.00;;;;;;4941984;28;94357;-37
2023/10/06 05:21:20;;;;;;;;;;;19.60;71.90;;;;;;4948838;28;96036;-37
2023/10/06 05:23:45;;;;;;;;;;;19.60;71.90;;;;;;4916493;28;95181;-37
2023/10/06 05:26:13;;;;;;;;;;;19.60;72.10;;;;;;4941087;28;96442;-37
2023/10/06 05:28:38;;;;;;;;;;;19.60;72.20;;;;;;4948915;28;96612;-37
2023/10/06 05:31:07;;;;;;;;;;;19.60;72.30;;;;;;4937491;28;96572;-37
2023/10/06 05:33:33;;;;;;;;;;;19.60;72.50;;;;;;4944034;28;94443;-37
2023/10/06 05:35:59;;;;;;;;;;;19.60;72.60;;;;;;4945262;28;95301;-37
2023/10/06 05:38:25;;;;;;;;;;;19.60;72.70;;;;;;4948046;28;94866;-36
2023/10/06 05:40:50;;;;;;;;;;;19.60;72.80;;;;;;4942288;28;94581;-37
2023/10/06 05:43:16;;;;;;;;;;;19.60;72.70;;;;;;4936242;28;94821;-37
2023/10/06 05:45:42;;;;;;;;;;;19.50;72.80;;;;;;4942171;28;95292;-37
2023/10/06 05:48:08;;;;;;;;;;;19.50;72.90;;;;;;4948025;28;94855;-37
2023/10/06 05:50:35;;;;;;;;;;;19.50;72.90;;;;;;4942627;28;94608;-37
2023/10/06 05:53:04;;;;;;;;;;;19.50;72.90;;;;;;4941427;28;94807;-37
2023/10/06 05:55:30;;;;;;;;;;;19.50;72.90;;;;;;4936623;28;95846;-36
2023/10/06 05:57:56;;;;;;;;;;;19.50;72.90;;;;;;4942284;28;94700;-37
2023/10/06 06:00:26;;;;;;;;;;;19.50;72.90;;;;;;4940834;28;94748;-36
2023/10/06 06:02:52;;;;;;;;;;;19.50;73.10;;;;;;4939079;28;94482;-46
2023/10/06 06:05:18;;;;;;;;;;;19.50;72.90;;;;;;4947335;28;99922;-36
2023/10/06 06:07:43;;;;;;;;;;;19.50;72.80;;;;;;4944439;28;95554;-36
2023/10/06 06:10:13;;;;;;;;;;;19.50;72.70;;;;;;4948616;28;95770;-36
2023/10/06 06:12:41;;;;;;;;;;;19.50;72.70;;;;;;4945882;28;95924;-36
2023/10/06 06:15:08;;;;;;;;;;;19.50;72.60;;;;;;4938028;28;95229;-36
2023/10/06 06:17:34;;;;;;;;;;;19.50;72.60;;;;;;4948591;28;94768;-36
2023/10/06 06:20:00;;;;;;;;;;;19.50;72.60;;;;;;4948802;28;96460;-36
2023/10/06 06:22:27;;;;;;;;;;;19.50;72.60;;;;;;4950138;28;94601;-36
2023/10/06 06:24:52;;;;;;;;;;;19.50;72.70;;;;;;4949872;28;95026;-36
2023/10/06 06:27:18;;;;;;;;;;;19.50;72.60;;;;;;4951558;28;95119;-36
2023/10/06 06:29:46;;;;;;;;;;;19.50;72.70;;;;;;4952518;28;97187;-36
2023/10/06 06:32:11;;;;;;;;;;;19.50;72.70;;;;;;4940354;28;94775;-36
2023/10/06 06:34:38;;;;;;;;;;;19.50;72.60;;;;;;4932891;28;97975;-36
2023/10/06 06:37:04;;;;;;;;;;;19.50;72.70;;;;;;4940581;28;95052;-36
2023/10/06 06:39:32;;;;;;;;;;;19.50;72.60;;;;;;4944464;28;95000;-36
2023/10/06 06:41:57;;;;;;;;;;;19.50;72.60;;;;;;4943910;28;95033;-36
2023/10/06 06:44:25;;;;;;;;;;;19.50;72.60;;;;;;4954483;28;94940;-36
2023/10/06 06:46:51;;;;;;;;;;;19.50;72.60;;;;;;4950679;28;94454;-36
2023/10/06 06:49:17;;;;;;;;;;;19.50;72.60;;;;;;4950518;28;95049;-36
2023/10/06 06:51:43;;;;;;;;;;;19.50;72.50;;;;;;4948538;28;98528;-36
2023/10/06 06:54:10;;;;;;;;;;;19.50;72.50;;;;;;4950279;28;96603;-36
2023/10/06 06:56:35;;;;;;;;;;;19.60;73.30;;;;;;4942540;28;95048;-36
2023/10/06 06:59:01;;;;;;;;;;;19.50;72.50;;;;;;4950358;28;96743;-36
2023/10/06 07:01:27;;;;;;;;;;;19.50;72.50;;;;;;4947439;28;95486;-36
2023/10/06 07:03:52;;;;;;;;;;;19.50;72.50;;;;;;4946866;28;95126;-36
2023/10/06 07:06:18;;;;;;;;;;;19.50;72.50;;;;;;4938987;28;94774;-36
2023/10/06 07:08:49;;;;;;;;;;;19.60;72.50;;;;;;4944681;28;96869;-37
2023/10/06 07:11:15;;;;;;;;;;;19.60;72.30;;;;;;4937947;28;95003;-36
2023/10/06 07:13:42;;;;;;;;;;;19.60;72.40;;;;;;4933696;28;95642;-37
2023/10/06 07:16:09;;;;;;;;;;;19.60;72.40;;;;;;4947070;28;94398;-36
2023/10/06 07:18:36;;;;;;;;;;;19.60;72.40;;;;;;4941755;28;94703;-36
2023/10/06 07:21:06;;;;;;;;;;;19.60;72.50;;;;;;4949655;28;95888;-36
2023/10/06 07:23:34;;;;;;;;;;;19.60;72.50;;;;;;4933385;28;97034;-36
2023/10/06 07:26:00;;;;;;;;;;;19.60;72.60;;;;;;4942976;28;95167;-36
2023/10/06 07:28:27;;;;;;;;;;;19.60;72.80;;;;;;4946959;28;94717;-36
2023/10/06 07:30:52;;;;;;;;;;;19.60;72.60;;;;;;4946702;28;96566;-36
2023/10/06 07:33:18;;;;;;;;;;;19.70;72.50;;;;;;4937482;28;96576;-36
2023/10/06 07:35:45;;;;;;;;;;;19.70;72.50;;;;;;4936083;28;95056;-37
2023/10/06 07:38:11;;;;;;;;;;;19.70;72.40;;;;;;4946087;28;95215;-36
2023/10/06 07:40:38;;;;;;;;;;;19.70;72.40;;;;;;4938863;28;94851;-36
2023/10/06 07:43:05;;;;;;;;;;;19.70;72.60;;;;;;4941600;28;94980;-37
2023/10/06 07:45:32;;;;;;;;;;;19.70;72.50;;;;;;4932664;28;94841;-36
2023/10/06 07:47:58;;;;;;;;;;;19.80;72.70;;;;;;4938050;28;96589;-37
2023/10/06 07:50:26;;;;;;;;;;;19.80;72.30;;;;;;4937533;28;95306;-37
2023/10/06 07:52:52;;;;;;;;;;;19.80;72.70;;;;;;4938322;28;96293;-37
2023/10/06 07:55:21;;;;;;;;;;;19.90;73.00;;;;;;4936702;28;96337;-36
2023/10/06 07:57:47;;;;;;;;;;;19.90;73.50;;;;;;4946429;28;95962;-37
2023/10/06 08:00:38;;;;;;;;;;;19.90;72.40;;;;;;4951546;28;96365;-37
2023/10/06 08:03:04;;;;;;;;;;;19.90;73.00;;;;;;4932863;28;96313;-39
2023/10/06 08:05:30;;;;;;;;;;;19.90;73.70;;;;;;4944294;28;94465;-37
2023/10/06 08:07:57;;;;;;;;;;;19.90;75.10;;;;;;4945707;28;96469;-37
2023/10/06 08:10:23;;;;;;;;;;;20.00;75.60;;;;;;4939137;28;95724;-37
2023/10/06 08:12:53;;;;;;;;;;;20.00;77.10;;;;;;4936795;28;97202;-38
2023/10/06 08:15:21;;;;;;;;;;;20.10;76.50;;;;;;4943309;28;96639;-38
2023/10/06 08:17:47;;;;;;;;;;;20.10;76.20;;;;;;4947054;28;95143;-38
2023/10/06 08:20:13;;;;;;;;;;;20.10;76.00;;;;;;4945268;28;99489;-38
2023/10/06 08:22:39;;;;;;;;;;;20.20;75.90;;;;;;4945014;28;98048;-38
2023/10/06 08:25:05;;;;;;;;;;;20.20;75.50;;;;;;4938240;28;95555;-38
2023/10/06 08:27:34;;;;;;;;;;;20.20;75.00;;;;;;4952003;28;94893;-38
2023/10/06 08:30:00;;;;;;;;;;;20.30;75.00;;;;;;4936119;28;93999;-38
2023/10/06 08:32:25;;;;;;;;;;;20.30;75.10;;;;;;4948137;28;96780;-38
2023/10/06 08:34:51;;;;;;;;;;;20.30;75.00;;;;;;4941834;28;94886;-42
2023/10/06 08:37:19;;;;;;;;;;;20.40;75.20;;;;;;4936401;28;97914;-41
2023/10/06 08:39:46;;;;;;;;;;;20.40;75.70;;;;;;4947004;28;94750;-38
2023/10/06 08:42:14;;;;;;;;;;;20.50;75.90;;;;;;4939430;28;97488;-38
2023/10/06 08:44:48;;;;;;;;;;;20.50;75.70;;;;;;4943759;28;95513;-38
2023/10/06 08:47:15;;;;;;;;;;;20.40;75.60;;;;;;4941590;28;96431;-38
2023/10/06 08:49:43;;;;;;;;;;;20.50;75.60;;;;;;4933950;28;95209;-38
2023/10/06 08:52:12;;;;;;;;;;;20.50;75.60;;;;;;4944513;28;97078;-39
2023/10/06 08:54:42;;;;;;;;;;;20.50;75.40;;;;;;4947531;28;93959;-39
2023/10/06 08:57:11;;;;;;;;;;;20.60;75.50;;;;;;4939272;28;95348;-39
2023/10/06 08:59:37;;;;;;;;;;;20.60;75.30;;;;;;4942819;28;95953;-39
2023/10/06 09:02:03;;;;;;;;;;;20.60;75.30;;;;;;4940095;28;96037;-39
2023/10/06 09:04:37;;;;;;;;;;;20.60;75.20;;;;;;4935321;28;96256;-39
2023/10/06 09:07:08;;;;;;;;;;;20.70;75.00;;;;;;4942796;28;99636;-39
2023/10/06 09:09:33;;;;;;;;;;;20.70;74.80;;;;;;4939715;28;96230;-39
2023/10/06 09:11:59;;;;;;;;;;;20.70;74.50;;;;;;4921429;28;95560;-39
2023/10/06 09:14:25;;;;;;;;;;;20.70;74.20;;;;;;4948937;28;94691;-39
2023/10/06 09:16:51;;;;;;;;;;;20.70;74.10;;;;;;4945893;28;97883;-39
2023/10/06 09:19:17;;;;;;;;;;;20.70;74.10;;;;;;4950986;28;94127;-39
2023/10/06 09:22:02;;;;;;;;;;;20.80;74.00;;;;;;4940270;28;97973;-39
2023/10/06 09:24:29;;;;;;;;;;;20.80;73.90;;;;;;4945517;28;94755;-39
2023/10/06 09:26:56;;;;;;;;;;;20.80;73.90;;;;;;4947882;28;98519;-39
2023/10/06 09:29:36;;;;;;;;;;;20.80;73.70;;;;;;4940125;28;94804;-39
2023/10/06 09:32:19;;;;;;;;;;;20.90;73.70;;;;;;4954331;28;95438;-39
2023/10/06 09:34:44;;;;;;;;;;;20.90;73.60;;;;;;4951513;28;95174;-39
2023/10/06 09:37:17;;;;;;;;;;;20.90;73.50;;;;;;4943938;28;94768;-39
2023/10/06 09:39:45;;;;;;;;;;;20.90;73.40;;;;;;4947547;28;95244;-39
2023/10/06 09:42:13;;;;;;;;;;;20.90;73.40;;;;;;4941999;28;99114;-39
2023/10/06 09:44:40;;;;;;;;;;;20.90;73.20;;;;;;4951206;28;98451;-39
2023/10/06 09:47:08;;;;;;;;;;;21.00;73.30;;;;;;4945256;28;95162;-39
2023/10/06 09:49:37;;;;;;;;;;;21.00;73.20;;;;;;4946943;28;97691;-39
2023/10/06 09:52:03;;;;;;;;;;;21.00;73.10;;;;;;4953425;28;97658;-39
2023/10/06 09:54:30;;;;;;;;;;;21.00;73.10;;;;;;4944722;28;96375;-39
2023/10/06 09:56:56;;;;;;;;;;;21.00;73.20;;;;;;4947228;28;94702;-39
2023/10/06 09:59:22;;;;;;;;;;;21.00;73.00;;;;;;4943552;28;95544;-39
2023/10/06 10:01:48;;;;;;;;;;;21.00;72.90;;;;;;4947439;28;96015;-39
2023/10/06 10:04:16;;;;;;;;;;;21.00;72.90;;;;;;4945007;28;95001;-39
2023/10/06 10:06:43;;;;;;;;;;;21.00;72.90;;;;;;4949619;28;95019;-39
2023/10/06 10:09:15;;;;;;;;;;;21.00;72.80;;;;;;4951004;28;94908;-39
2023/10/06 10:11:42;;;;;;;;;;;21.00;72.70;;;;;;4945476;28;94799;-39
2023/10/06 10:14:07;;;;;;;;;;;21.00;72.60;;;;;;4945833;28;95779;-41
2023/10/06 10:16:38;;;;;;;;;;;21.00;72.60;;;;;;4942286;28;96183;-39
2023/10/06 10:19:07;;;;;;;;;;;21.10;72.50;;;;;;4950648;28;96980;-39
2023/10/06 10:21:34;;;;;;;;;;;21.10;72.40;;;;;;4945206;28;95998;-39
2023/10/06 10:24:05;;;;;;;;;;;21.10;72.40;;;;;;4934445;28;96479;-39
2023/10/06 10:26:34;;;;;;;;;;;21.10;72.30;;;;;;4941122;28;96565;-39
2023/10/06 10:29:17;;;;;;;;;;;21.10;71.60;;;;;;4958233;28;95774;-39
2023/10/06 10:31:44;;;;;;;;;;;21.10;70.00;;;;;;4950040;28;95295;-39
2023/10/06 10:34:33;;;;;;;;;;;21.00;68.40;;;;;;4938014;28;95679;-39
2023/10/06 10:37:04;;;;;;;;;;;21.00;68.50;;;;;;4944539;28;95684;-39
2023/10/06 10:39:39;;;;;;;;;;;21.00;67.50;;;;;;4941924;28;94771;-39
2023/10/06 10:42:05;;;;;;;;;;;21.00;67.80;;;;;;4934062;28;97310;-39
2023/10/06 10:44:30;;;;;;;;;;;21.00;68.40;;;;;;4939680;28;95964;-39
2023/10/06 10:47:01;;;;;;;;;;;21.00;67.90;;;;;;4930998;28;94952;-39
2023/10/06 10:49:32;;;;;;;;;;;21.00;68.50;;;;;;4941148;28;94665;-39
2023/10/06 10:52:07;;;;;;;;;;;21.00;68.90;;;;;;4933496;28;95356;-39
2023/10/06 10:54:36;;;;;;;;;;;21.20;68.70;;;;;;4931115;28;94786;-39
2023/10/06 10:57:21;;;;;;;;;;;21.20;68.80;;;;;;4942042;28;95256;-39
2023/10/06 11:00:24;;;;;;;;;;;21.20;68.70;;;;;;4946053;28;94216;-39
2023/10/06 11:02:50;;;;;;;;;;;21.30;68.80;;;;;;4938802;28;94666;-39
2023/10/06 11:05:19;;;;;;;;;;;21.30;68.90;;;;;;4946015;28;95123;-39
2023/10/06 11:07:58;;;;;;;;;;;21.40;69.20;;;;;;4946245;28;95891;-39
2023/10/06 11:10:24;;;;;;;;;;;21.40;69.00;;;;;;4941481;28;94861;-39
2023/10/06 11:12:54;;;;;;;;;;;21.40;69.00;;;;;;4939196;28;95372;-39
2023/10/06 11:15:26;;;;;;;;;;;21.40;69.00;;;;;;4945408;28;95524;-39
2023/10/06 11:17:55;;;;;;;;;;;21.40;69.20;;;;;;4941518;28;96012;-39
2023/10/06 11:20:25;;;;;;;;;;;21.50;69.30;;;;;;4945183;28;97253;-39
2023/10/06 11:22:59;;;;;;;;;;;21.50;69.30;;;;;;4936104;28;98585;-39
2023/10/06 11:25:28;;;;;;;;;;;21.50;69.30;;;;;;4949872;28;95174;-39
2023/10/06 11:27:56;;;;;;;;;;;21.50;69.40;;;;;;4941965;28;94980;-39
2023/10/06 11:30:23;;;;;;;;;;;21.50;69.40;;;;;;4941086;28;98566;-39
2023/10/06 11:32:50;;;;;;;;;;;21.50;69.40;;;;;;4947661;28;100327;-39
2023/10/06 11:35:16;;;;;;;;;;;21.60;69.30;;;;;;4951027;28;96875;-39
2023/10/06 11:37:42;;;;;;;;;;;21.60;70.10;;;;;;4948079;28;95172;-39
2023/10/06 11:40:09;;;;;;;;;;;21.60;69.50;;;;;;4941945;28;94787;-39
2023/10/06 11:42:37;;;;;;;;;;;21.60;69.60;;;;;;4945526;28;94659;-39
2023/10/06 11:45:11;;;;;;;;;;;21.60;69.50;;;;;;4944340;28;95882;-39
2023/10/06 11:47:37;;;;;;;;;;;21.60;69.50;;;;;;4947468;28;96007;-39
2023/10/06 11:50:04;;;;;;;;;;;21.60;69.50;;;;;;4948720;28;94382;-39
2023/10/06 11:52:30;;;;;;;;;;;21.60;69.50;;;;;;4946198;28;97217;-39
2023/10/06 11:54:58;;;;;;;;;;;21.70;69.40;;;;;;4940212;28;95942;-39
2023/10/06 11:57:42;;;;;;;;;;;21.60;69.60;;;;;;4949876;28;96057;-39
2023/10/06 12:00:10;;;;;;;;;;;21.70;69.80;;;;;;4939170;28;94761;-39
2023/10/06 12:02:50;;;;;;;;;;;21.70;69.30;;;;;;4947511;28;94930;-39
2023/10/06 12:05:16;;;;;;;;;;;21.70;69.50;;;;;;4938365;28;99003;-39
2023/10/06 12:07:42;;;;;;;;;;;21.70;69.60;;;;;;4954511;28;94705;-39
2023/10/06 12:10:08;;;;;;;;;;;21.70;69.70;;;;;;4942075;28;99906;-40
2023/10/06 12:12:34;;;;;;;;;;;21.70;69.60;;;;;;4944969;28;95576;-40
2023/10/06 12:14:59;;;;;;;;;;;21.80;69.70;;;;;;4942647;28;97958;-39
2023/10/06 12:17:27;;;;;;;;;;;21.70;69.60;;;;;;4949138;28;95098;-39
2023/10/06 12:19:52;;;;;;;;;;;21.80;69.80;;;;;;4950760;28;95088;-39
2023/10/06 12:22:18;;;;;;;;;;;21.80;69.90;;;;;;4942440;28;96616;-39
2023/10/06 12:24:45;;;;;;;;;;;21.80;70.00;;;;;;4948389;28;96543;-39
2023/10/06 12:27:11;;;;;;;;;;;21.80;69.90;;;;;;4947086;28;95220;-39
2023/10/06 12:29:37;;;;;;;;;;;21.80;69.90;;;;;;4953051;28;94681;-39
2023/10/06 12:32:02;;;;;;;;;;;21.80;69.90;;;;;;4948513;28;96073;-39
2023/10/06 12:34:28;;;;;;;;;;;21.80;70.00;;;;;;4954982;28;95950;-39
2023/10/06 12:37:01;;;;;;;;;;;21.80;69.90;;;;;;4947206;28;96522;-39
2023/10/06 12:39:34;;;;;;;;;;;21.80;69.70;;;;;;4954812;28;94321;-39
2023/10/06 12:42:00;;;;;;;;;;;21.90;69.90;;;;;;4949647;28;94935;-39
2023/10/06 12:44:28;;;;;;;;;;;21.90;69.90;;;;;;4953623;28;95276;-39
2023/10/06 12:47:03;;;;;;;;;;;21.90;69.80;;;;;;4947707;28;95621;-39
2023/10/06 12:49:30;;;;;;;;;;;21.90;69.70;;;;;;4943942;28;99612;-39
2023/10/06 12:51:56;;;;;;;;;;;22.00;69.80;;;;;;4943837;28;96907;-39
2023/10/06 12:54:25;;;;;;;;;;;21.90;69.70;;;;;;4950271;28;94534;-39
2023/10/06 12:56:51;;;;;;;;;;;22.00;69.80;;;;;;4946306;28;94969;-39
2023/10/06 12:59:17;;;;;;;;;;;22.00;69.60;;;;;;4954342;28;94735;-39
2023/10/06 13:01:42;;;;;;;;;;;22.00;69.60;;;;;;4949944;28;97081;-39
2023/10/06 13:04:08;;;;;;;;;;;22.00;69.50;;;;;;4952664;28;96423;-39
2023/10/06 13:06:35;;;;;;;;;;;22.00;69.60;;;;;;4950152;28;94097;-40
2023/10/06 13:09:02;;;;;;;;;;;22.00;69.50;;;;;;4944592;28;94660;-39
2023/10/06 13:11:28;;;;;;;;;;;22.00;69.40;;;;;;4946587;28;98850;-39
2023/10/06 13:13:53;;;;;;;;;;;22.00;69.30;;;;;;4942025;28;96652;-39
2023/10/06 13:16:19;;;;;;;;;;;22.00;69.20;;;;;;4928329;28;94783;-39
2023/10/06 13:18:45;;;;;;;;;;;22.00;69.20;;;;;;4947922;28;94651;-40
2023/10/06 13:21:11;;;;;;;;;;;22.10;69.30;;;;;;4933977;28;99870;-39
2023/10/06 13:23:37;;;;;;;;;;;22.00;69.50;;;;;;4939838;28;95097;-39
2023/10/06 13:26:03;;;;;;;;;;;22.10;69.30;;;;;;4932302;28;98435;-39
2023/10/06 13:28:30;;;;;;;;;;;22.10;69.30;;;;;;4941903;28;95208;-39
2023/10/06 13:30:56;;;;;;;;;;;22.10;69.30;;;;;;4938550;28;95300;-39
2023/10/06 13:33:22;;;;;;;;;;;22.10;69.30;;;;;;4938640;28;95424;-39
2023/10/06 13:35:47;;;;;;;;;;;22.10;69.30;;;;;;4933460;28;97140;-39
2023/10/06 13:38:16;;;;;;;;;;;22.10;69.30;;;;;;4945002;28;95897;-39
2023/10/06 13:40:44;;;;;;;;;;;22.10;69.30;;;;;;4943015;28;94883;-39
2023/10/06 13:43:11;;;;;;;;;;;22.10;69.20;;;;;;4941923;28;94500;-39
2023/10/06 13:45:39;;;;;;;;;;;22.10;69.30;;;;;;4937171;28;94693;-39
2023/10/06 13:48:05;;;;;;;;;;;22.10;69.30;;;;;;4942494;28;95113;-39
2023/10/06 13:50:31;;;;;;;;;;;22.20;69.20;;;;;;4938546;28;95852;-39
2023/10/06 13:52:56;;;;;;;;;;;22.20;69.30;;;;;;4946464;28;94856;-39
2023/10/06 13:55:22;;;;;;;;;;;22.20;69.20;;;;;;4946041;28;94894;-39
2023/10/06 13:57:52;;;;;;;;;;;22.20;69.30;;;;;;4930367;28;96412;-39
2023/10/06 14:00:28;;;;;;;;;;;22.20;69.10;;;;;;4940219;28;96483;-39
2023/10/06 14:03:03;;;;;;;;;;;22.20;69.00;;;;;;4936944;28;95083;-38
2023/10/06 14:05:32;;;;;;;;;;;22.20;69.30;;;;;;4948713;28;94606;-40
2023/10/06 14:08:03;;;;;;;;;;;22.20;69.30;;;;;;4938605;28;95719;-39
2023/10/06 14:10:31;;;;;;;;;;;22.20;69.30;;;;;;4943725;28;95528;-39
2023/10/06 14:13:02;;;;;;;;;;;22.20;69.30;;;;;;4932703;28;95764;-39
2023/10/06 14:15:36;;;;;;;;;;;22.20;69.30;;;;;;4943444;28;96076;-39
2023/10/06 14:18:01;;;;;;;;;;;22.20;69.10;;;;;;4938167;28;94897;-39
2023/10/06 14:20:31;;;;;;;;;;;22.20;69.30;;;;;;4946106;28;95670;-39
2023/10/06 14:22:56;;;;;;;;;;;22.20;69.20;;;;;;4951583;28;95671;-38
2023/10/06 14:25:29;;;;;;;;;;;22.20;69.30;;;;;;4940188;28;95671;-39
2023/10/06 14:27:56;;;;;;;;;;;22.20;69.30;;;;;;4943720;28;96208;-39
2023/10/06 14:30:28;;;;;;;;;;;22.20;69.70;;;;;;4953667;28;95148;-40
2023/10/06 14:33:13;;;;;;;;;;;22.20;69.50;;;;;;4937729;28;94821;-39
2023/10/06 14:46:28;;;;;;;;;;;22.20;69.50;;;;;;4943569;28;99198;-39
2023/10/06 14:48:54;;;;;;;;;;;22.20;69.30;;;;;;4930101;28;95523;-40